Guilford, Ohio
Current Conditions -  °F | °C
As of 11:56 AM on Friday 31 Oct 2014 (Local Time) from KBJJ Reporting Station
Overcast Overcast  
Wind Chill: 44°   Ceiling: 4200
Heat Index: 48°   Visibility: 10mi
Dew Point: 36°   Wind: 9mph
Humidity: 63%   Direction: 220°SW
Pressure: 29.9"   Gusts: NA
Location:  41.0285°N, 81.8751°W
Report Text: KBJJ 311556Z AUTO 22008KT 10SM OVC042 09/02 A2990 RMK AO2 SLP131 T00890022 TSNO
Loading
Personal Weather Stations






























Interactive Weather Map
Tropical Storm Tracking
New forecast layout! Learn more

10-Day Weather Forecast

Advertisements
Track Severe Weather on mobile